METAR Data
IDs: Format: Raw Decoded Include TAF

Data at: 0157 UTC 20 Jan 2022

KCCU 200135Z AUTO 30006KT 10SM OVC032 M08/M12 A3011 RMK AO2
KCCU 200115Z AUTO 30006KT 10SM SCT015 BKN035 OVC050 M08/M12 A3010 RMK AO2
KCCU 200055Z AUTO 29010KT 10SM SCT015 BKN037 OVC050 M08/M12 A3010 RMK AO2
KCCU 200035Z AUTO 29012KT 7SM SCT011 BKN019 OVC037 M08/M12 A3010 RMK AO2
KCCU 200015Z AUTO 29014G19KT 10SM SCT015 BKN024 OVC032 M07/M12 A3009 RMK AO2
KCCU 192355Z AUTO 29015G18KT 10SM SCT018 BKN034 OVC055 M07/M13 A3008 RMK AO2
KCCU 192335Z AUTO 29014KT 10SM SCT043 BKN055 M07/M14 A3007 RMK AO2
KCCU 192315Z AUTO 29013KT 10SM CLR M06/M15 A3007 RMK AO2
KCCU 192255Z AUTO 28013G17KT 10SM CLR M05/M15 A3007 RMK AO2
KCCU 192235Z AUTO 30011KT 290V350 10SM CLR M05/M15 A3006 RMK AO2
KCCU 192215Z AUTO 30009G18KT 10SM CLR M05/M16 A3006 RMK AO2
KCCU 192155Z AUTO 30010G16KT 10SM CLR M05/M16 A3006 RMK AO2
KCCU 192135Z AUTO 31013G17KT 10SM SCT036 M04/M16 A3005 RMK AO2
KCCU 192115Z AUTO 27014G18KT 10SM BKN036 M04/M17 A3006 RMK AO2
KCCU 192055Z AUTO 28011G17KT 10SM CLR M04/M17 A3006 RMK AO2
KCCU 192035Z AUTO 29015G19KT 10SM CLR M05/M17 A3006 RMK AO2
KCCU 192015Z AUTO 29012G18KT 10SM CLR M05/M17 A3005 RMK AO2
KCCU 191955Z AUTO 26014G17KT 10SM CLR M05/M17 A3006 RMK AO2
KCCU 191935Z AUTO 27013G18KT 10SM SCT048 M05/M18 A3007 RMK AO2
KCCU 191915Z AUTO 27017G22KT 10SM BKN046 M05/M18 A3007 RMK AO2
KCCU 191855Z AUTO 28010G20KT 10SM SCT042 M05/M17 A3008 RMK AO2
KCCU 191835Z AUTO 27012G19KT 10SM CLR M05/M17 A3008 RMK AO2
KCCU 191815Z AUTO 29009G14KT 10SM CLR M05/M17 A3008 RMK AO2
KCCU 191755Z AUTO 28009KT 10SM CLR M06/M14 A3009 RMK AO2
KCCU 191735Z AUTO 27004KT 10SM CLR M07/M15 A3008 RMK AO2
KCCU 191715Z AUTO 25007KT 10SM CLR M07/M15 A3008 RMK AO2
KCCU 191655Z AUTO 24007KT 10SM CLR M07/M14 A3008 RMK AO2
KCCU 191635Z AUTO 25006KT 10SM CLR M07/M15 A3007 RMK AO2
KCCU 191615Z AUTO 00000KT 10SM CLR M08/M15 A3007 RMK AO2
KCCU 191555Z AUTO 24008KT 10SM SCT085 SCT100 M08/M15 A3006 RMK AO2
KCCU 191535Z AUTO 27007KT 10SM SCT085 SCT100 M10/M15 A3006 RMK AO2
KCCU 191515Z AUTO 27006KT 10SM CLR M09/M15 A3006 RMK AO2
KCCU 191455Z AUTO 25009KT 10SM CLR M08/M16 A3005 RMK AO2
KCCU 191435Z AUTO 27010KT 10SM CLR M08/M15 A3005 RMK AO2
KCCU 191415Z AUTO 27009KT 10SM CLR M08/M15 A3005 RMK AO2
KCCU 191355Z AUTO 23004KT 10SM CLR M08/M17 A3005 RMK AO2
KCCU 191335Z AUTO 25007KT 10SM SCT110 M08/M15 A3004 RMK AO2
KCCU 191315Z AUTO 21005KT 10SM BKN120 M10/M15 A3004 RMK AO2
KCCU 191255Z AUTO 19003KT 10SM CLR M09/M15 A3003 RMK AO2
KCCU 191235Z AUTO 26007KT 10SM CLR M10/M15 A3003 RMK AO2
KCCU 191215Z AUTO 29007KT 10SM SCT110 M08/M15 A3003 RMK AO2
KCCU 191155Z AUTO 21005KT 10SM SCT110 M08/M16 A3003 RMK AO2
KCCU 191135Z AUTO 28005KT 10SM CLR M08/M15 A3003 RMK AO2
KCCU 191115Z AUTO 27004KT 10SM CLR M08/M16 A3004 RMK AO2
KCCU 191055Z AUTO 26006KT 10SM BKN110 M08/M16 A3005 RMK AO2
KCCU 191035Z AUTO 24005KT 10SM BKN100 OVC120 M08/M18 A3004 RMK AO2
KCCU 191015Z AUTO 25007KT 10SM BKN100 M07/M18 A3005 RMK AO2
KCCU 190955Z AUTO 26007KT 10SM OVC090 M07/M18 A3004 RMK AO2
KCCU 190935Z AUTO 25007KT 10SM OVC090 M07/M19 A3004 RMK AO2
KCCU 190915Z AUTO 00000KT 10SM OVC100 M07/M18 A3004 RMK AO2
KCCU 190855Z AUTO 24007KT 10SM BKN110 M06/M20 A3003 RMK AO2
KCCU 190835Z AUTO 24005KT 10SM SCT110 M07/M20 A3004 RMK AO2
KCCU 190815Z AUTO 25006KT 10SM BKN100 M07/M19 A3003 RMK AO2
KCCU 190755Z AUTO 23005KT 10SM OVC100 M07/M20 A3004 RMK AO2
KCCU 190735Z AUTO 20003KT 10SM OVC110 M06/M19 A3003 RMK AO2
KCCU 190715Z AUTO 18003KT 10SM BKN110 M06/M18 A3003 RMK AO2
KCCU 190655Z AUTO 23004KT 10SM OVC110 M06/M17 A3005 RMK AO2
KCCU 190635Z AUTO 00000KT 10SM OVC110 M07/M17 A3005 RMK AO2
KCCU 190615Z AUTO 26005KT 10SM OVC100 M07/M15 A3005 RMK AO2
KCCU 190555Z AUTO 27003KT 10SM OVC100 M07/M16 A3005 RMK AO2
KCCU 190535Z AUTO 26005KT 10SM OVC100 M07/M15 A3005 RMK AO2
KCCU 190515Z AUTO 27006KT 10SM BKN080 BKN110 M07/M16 A3004 RMK AO2
KCCU 190455Z AUTO 28006KT 10SM OVC080 M07/M16 A3004 RMK AO2
KCCU 190435Z AUTO 26008KT 10SM OVC080 M07/M16 A3004 RMK AO2
KCCU 190415Z AUTO 29006KT 10SM OVC080 M07/M16 A3005 RMK AO2
KCCU 190355Z AUTO 27003KT 10SM OVC090 M07/M16 A3003 RMK AO2
KCCU 190335Z AUTO 28005KT 10SM OVC100 M06/M16 A3003 RMK AO2
KCCU 190315Z AUTO 29006KT 10SM SCT050 BKN070 OVC100 M07/M16 A3003 RMK AO2
KCCU 190255Z AUTO 29009KT 10SM SCT041 OVC050 M06/M16 A3003 RMK AO2
KCCU 190235Z AUTO 28006KT 10SM BKN050 OVC055 M06/M16 A3003 RMK AO2
KCCU 190215Z AUTO 30003KT 10SM OVC065 M05/M17 A3003 RMK AO2
KCCU 190155Z AUTO 00000KT 10SM SCT065 OVC075 M05/M16 A3003 RMK AO2
KCCU 190135Z AUTO 30004KT 10SM OVC085 M05/M16 A3003 RMK AO2
KCCU 190115Z AUTO 30008KT 10SM OVC100 M05/M17 A3002 RMK AO2
KCCU 190055Z AUTO 29007KT 10SM OVC090 M05/M17 A3002 RMK AO2
KCCU 190035Z AUTO 29009KT 10SM BKN100 OVC110 M05/M18 A3001 RMK AO2
KCCU 190015Z AUTO 30009KT 10SM BKN090 OVC110 M04/M18 A3001 RMK AO2
KCCU 182355Z AUTO 30007KT 10SM OVC090 M04/M18 A3000 RMK AO2
KCCU 182335Z AUTO 26007KT 10SM OVC090 M04/M18 A3000 RMK AO2
KCCU 182315Z AUTO 28011KT 10SM BKN090 BKN120 M03/M20 A2999 RMK AO2
KCCU 182255Z AUTO 25011KT 10SM BKN120 M02/M21 A2999 RMK AO2
KCCU 182235Z AUTO 25012KT 10SM BKN120 M02/M22 A2998 RMK AO2
KCCU 182215Z AUTO 25012KT 10SM SCT120 M01/M23 A2998 RMK AO2
KCCU 182155Z AUTO 26010G16KT 10SM CLR M01/M25 A2998 RMK AO2
KCCU 182135Z AUTO 25009KT 10SM CLR M01/M24 A2998 RMK AO2
KCCU 182115Z AUTO 27009KT 10SM CLR M02/M25 A2999 RMK AO2
KCCU 182055Z AUTO 27012G15KT 10SM CLR M02/M26 A2999 RMK AO2
KCCU 182035Z AUTO 29008KT 10SM CLR M02/M25 A3000 RMK AO2
KCCU 182015Z AUTO 29010KT 10SM CLR M02/M25 A3000 RMK AO2
KCCU 181955Z AUTO 29009KT 10SM CLR M02/M26 A3000 RMK AO2
KCCU 181935Z AUTO 29011KT 10SM CLR M02/M27 A3000 RMK AO2
KCCU 181915Z AUTO 28012G17KT 10SM CLR M02/M28 A3001 RMK AO2
KCCU 181855Z AUTO 27012KT 10SM CLR M03/M28 A3002 RMK AO2
KCCU 181835Z AUTO 29010G14KT 10SM CLR M02/M28 A3002 RMK AO2
KCCU 181815Z AUTO 27011G14KT 10SM CLR M02/M28 A3003 RMK AO2
KCCU 181755Z AUTO 27009KT 10SM CLR M03/M28 A3005 RMK AO2
KCCU 181735Z AUTO 26013KT 10SM CLR M04/M28 A3005 RMK AO2
KCCU 181715Z AUTO 26012KT 10SM CLR M05/M28 A3005 RMK AO2
KCCU 181655Z AUTO 27009G14KT 10SM CLR M05/M28 A3005 RMK AO2
KCCU 181635Z AUTO 31003KT 10SM CLR M05/M28 A3005 RMK AO2
KCCU 181615Z AUTO 24007KT 10SM CLR M05/M28 A3004 RMK AO2
KCCU 181555Z AUTO 24005KT 10SM CLR M07/M26 A3004 RMK AO2
KCCU 181535Z AUTO 26009KT 10SM CLR M06/M25 A3003 RMK AO2
KCCU 181515Z AUTO 28009KT 10SM CLR M05/M26 A3002 RMK AO2
KCCU 181455Z AUTO 27013KT 10SM CLR M06/M25 A3002 RMK AO2
KCCU 181435Z AUTO 26011KT 10SM CLR M06/M25 A3003 RMK AO2
KCCU 181415Z AUTO 26010KT 10SM CLR M05/M25 A3002 RMK AO2